»·PEaware :: N149CD KCMA-KONT

N149CD :: KCMA-KONT

FLIGHT INFORMATION

Flight Status: Arrived
Operator: Privately registered:
United States
More flights under this callsign
Pilot: Nathan E. (30132)
Aircraft: CESSNA 172 SKYHAWK
(C172)
More flights by this aircraft type
Origin: KCMA Camarillo
United States
Destination: KONT Ontario Intl
United States
More flights between these airports :: More routes between these airports
Route: +VTU044 GINNA V326 VNY V186 PDZ DICEG
File this flight plan on PilotEdge
Remarks: TEC route VTUP15
Altitude:
(Current/Filed)
5,000ft
Speed:
(Current/Filed)
110kts
Departed: 16-Nov-20 03:51 PM
Arrived: 16-Nov-20 04:56 PM
Distance/Time
Traveled:
75nm/1:05
Distance/Time
To Go:
Arrived

Flight Plot

Page will automatically refresh every two minutes.

Flight plan parsing failed; only flown route is shown


Map Options




Map Legend


Flown Route
Filed Route
Departure Airport
Arrival Airport
Navaid (VOR, NDB)
Fix

Horizontal Profiles

Position Reports

Time Latitude Longitude Heading Altitude Ground
Speed
16-Nov-20 15:32 34.210350 -119.076469 90 79ft 0kts
16-Nov-20 15:33 34.210350 -119.076469 90 79ft 0kts
16-Nov-20 15:34 34.210350 -119.076469 90 79ft 0kts
16-Nov-20 15:35 34.210350 -119.076469 90 79ft 0kts
16-Nov-20 15:36 34.210350 -119.076469 90 79ft 0kts
16-Nov-20 15:37 34.210350 -119.076469 90 79ft 0kts
16-Nov-20 15:38 34.210350 -119.076469 90 79ft 0kts
16-Nov-20 15:39 34.210350 -119.076469 90 79ft 0kts
16-Nov-20 15:40 34.210350 -119.076469 90 79ft 0kts
16-Nov-20 15:41 34.210350 -119.076469 90 79ft 0kts
16-Nov-20 15:42 34.210350 -119.076469 90 79ft 0kts
16-Nov-20 15:43 34.210350 -119.076469 90 79ft 0kts
16-Nov-20 15:44 34.210350 -119.076469 90 79ft 0kts
16-Nov-20 15:45 34.210350 -119.076469 90 79ft 0kts
16-Nov-20 15:46 34.210876 -119.077603 270 79ft 11kts
16-Nov-20 15:47 34.210916 -119.082197 270 76ft 14kts
16-Nov-20 15:48 34.212462 -119.084072 316 76ft 7kts
16-Nov-20 15:49 34.212571 -119.084206 287 76ft 3kts
16-Nov-20 15:50 34.213714 -119.087108 270 73ft 51kts
16-Nov-20 15:51 34.214569 -119.112167 272 842ft 75kts
16-Nov-20 15:52 34.220150 -119.136773 286 1756ft 77kts
16-Nov-20 15:53 34.226461 -119.161752 286 2633ft 78kts
16-Nov-20 15:54 34.240046 -119.175430 39 3468ft 79kts
16-Nov-20 15:55 34.242061 -119.149414 93 4267ft 80kts
16-Nov-20 15:56 34.240659 -119.122327 93 4982ft 86kts
16-Nov-20 15:57 34.238454 -119.085208 94 4999ft 114kts
16-Nov-20 15:58 34.236057 -119.045596 94 5000ft 116kts
16-Nov-20 15:59 34.233638 -119.005538 94 4999ft 116kts
16-Nov-20 16:00 34.231199 -118.965301 94 4999ft 116kts
16-Nov-20 16:01 34.228739 -118.924915 94 4999ft 116kts
16-Nov-20 16:02 34.226261 -118.884440 94 4999ft 116kts
16-Nov-20 16:03 34.223768 -118.843947 94 4999ft 116kts
16-Nov-20 16:04 34.223175 -118.803409 89 4999ft 116kts
16-Nov-20 16:05 34.223224 -118.762978 89 4999ft 116kts
16-Nov-20 16:06 34.223296 -118.722261 89 4999ft 116kts
16-Nov-20 16:07 34.223363 -118.681295 89 4999ft 116kts
16-Nov-20 16:08 34.223419 -118.639790 89 4999ft 116kts
16-Nov-20 16:09 34.223462 -118.598453 89 4999ft 116kts
16-Nov-20 16:10 34.223496 -118.556653 89 4999ft 116kts
16-Nov-20 16:11 34.223518 -118.515637 89 4999ft 116kts
16-Nov-20 16:12 34.218180 -118.475880 108 4999ft 116kts
16-Nov-20 16:13 34.207325 -118.438621 109 4999ft 116kts
16-Nov-20 16:15 34.196251 -118.401735 109 4999ft 116kts
16-Nov-20 16:16 34.185095 -118.364890 109 4999ft 116kts
16-Nov-20 16:17 34.173861 -118.327906 110 4999ft 116kts
16-Nov-20 16:18 34.162308 -118.289937 110 4999ft 117kts
16-Nov-20 16:19 34.158470 -118.277334 110 4999ft 117kts
16-Nov-20 16:20 34.158470 -118.277334 110 4999ft 117kts
16-Nov-20 16:21 34.147753 -118.242155 110 4999ft 117kts
16-Nov-20 16:22 34.135837 -118.203085 110 4999ft 117kts
16-Nov-20 16:23 34.123939 -118.164193 110 4999ft 117kts
16-Nov-20 16:24 34.112026 -118.125299 110 4999ft 117kts
16-Nov-20 16:25 34.100189 -118.086660 110 4999ft 117kts
16-Nov-20 16:26 34.088318 -118.047971 110 4999ft 117kts
16-Nov-20 16:27 34.076630 -118.009931 110 4999ft 117kts
16-Nov-20 16:28 34.065299 -117.973084 110 4999ft 117kts
16-Nov-20 16:29 34.053873 -117.935974 110 4999ft 117kts
16-Nov-20 16:30 34.042509 -117.899112 110 4999ft 117kts
16-Nov-20 16:31 34.031033 -117.861939 110 4999ft 117kts
16-Nov-20 16:32 34.019663 -117.825162 110 4999ft 117kts
16-Nov-20 16:32 34.010161 -117.794531 110 4999ft 117kts
16-Nov-20 16:34 33.996584 -117.751903 112 4999ft 117kts
16-Nov-20 16:34 33.986040 -117.721810 112 4999ft 117kts
16-Nov-20 16:36 33.971133 -117.679453 112 4999ft 117kts
16-Nov-20 16:36 33.960573 -117.649485 112 4999ft 117kts
16-Nov-20 16:38 33.945703 -117.607331 112 4999ft 117kts
16-Nov-20 16:38 33.935075 -117.577241 112 4999ft 117kts
16-Nov-20 16:39 33.933875 -117.540991 91 4962ft 107kts
16-Nov-20 16:40 33.931750 -117.502795 93 4800ft 116kts
16-Nov-20 16:41 33.929569 -117.463006 93 4799ft 116kts
16-Nov-20 16:42 33.927385 -117.423116 93 4799ft 116kts
16-Nov-20 16:43 33.925195 -117.383318 93 4799ft 116kts
16-Nov-20 16:44 33.931040 -117.347049 25 4698ft 117kts
16-Nov-20 16:45 33.963315 -117.342138 0 4799ft 116kts
16-Nov-20 16:46 33.995981 -117.341966 0 4799ft 116kts
16-Nov-20 16:47 34.028708 -117.341985 359 4799ft 117kts
16-Nov-20 16:48 34.054352 -117.357673 285 4509ft 113kts
16-Nov-20 16:49 34.056746 -117.396937 270 3966ft 115kts
16-Nov-20 16:50 34.056826 -117.436063 270 3355ft 115kts
16-Nov-20 16:51 34.056863 -117.476603 270 2695ft 114kts
16-Nov-20 16:52 34.056881 -117.513948 270 2086ft 108kts
16-Nov-20 16:53 34.056890 -117.547279 270 1546ft 86kts
16-Nov-20 16:54 34.056883 -117.571741 270 1156ft 65kts
16-Nov-20 16:55 34.056903 -117.590443 270 926ft 28kts
16-Nov-20 16:56 34.057333 -117.599823 347 928ft 9kts
16-Nov-20 16:57 34.057868 -117.599845 358 930ft 11kts
16-Nov-20 16:58 34.059117 -117.600150 359 934ft 0kts

Navigation Log

Ident Type
Flight plan parsing failed, navigation log unavailable